sensor_id;sensor_type;location;lat;lon;timestamp;P1;durP1;ratioP1;P2;durP2;ratioP2
19030;SDS011;9648;51.130;13.978;2023-06-14T00:00:08;4.47;;;2.60;;
19030;SDS011;9648;51.130;13.978;2023-06-14T00:02:38;3.90;;;2.58;;
19030;SDS011;9648;51.130;13.978;2023-06-14T00:05:05;3.05;;;2.30;;
19030;SDS011;9648;51.130;13.978;2023-06-14T00:07:35;2.97;;;2.30;;
19030;SDS011;9648;51.130;13.978;2023-06-14T00:10:07;4.07;;;2.60;;
19030;SDS011;9648;51.130;13.978;2023-06-14T00:12:35;5.32;;;3.10;;
19030;SDS011;9648;51.130;13.978;2023-06-14T00:15:02;2.97;;;2.35;;
19030;SDS011;9648;51.130;13.978;2023-06-14T00:17:29;4.95;;;2.97;;
19030;SDS011;9648;51.130;13.978;2023-06-14T00:19:57;4.18;;;3.00;;
19030;SDS011;9648;51.130;13.978;2023-06-14T00:22:24;4.40;;;2.83;;
19030;SDS011;9648;51.130;13.978;2023-06-14T00:24:53;3.60;;;2.72;;
19030;SDS011;9648;51.130;13.978;2023-06-14T00:27:20;4.57;;;2.80;;
19030;SDS011;9648;51.130;13.978;2023-06-14T00:29:47;5.05;;;2.65;;
19030;SDS011;9648;51.130;13.978;2023-06-14T00:32:14;5.90;;;2.90;;
19030;SDS011;9648;51.130;13.978;2023-06-14T00:34:41;5.10;;;2.77;;
19030;SDS011;9648;51.130;13.978;2023-06-14T00:37:09;4.50;;;2.90;;
19030;SDS011;9648;51.130;13.978;2023-06-14T00:39:35;4.05;;;2.58;;
19030;SDS011;9648;51.130;13.978;2023-06-14T00:42:02;5.37;;;2.90;;
19030;SDS011;9648;51.130;13.978;2023-06-14T00:44:30;4.85;;;2.75;;
19030;SDS011;9648;51.130;13.978;2023-06-14T00:46:58;5.38;;;2.90;;
19030;SDS011;9648;51.130;13.978;2023-06-14T00:49:24;4.55;;;2.80;;
19030;SDS011;9648;51.130;13.978;2023-06-14T00:51:51;4.00;;;2.45;;
19030;SDS011;9648;51.130;13.978;2023-06-14T00:54:19;4.18;;;2.70;;
19030;SDS011;9648;51.130;13.978;2023-06-14T00:56:46;6.00;;;2.83;;
19030;SDS011;9648;51.130;13.978;2023-06-14T00:59:13;4.73;;;2.90;;
19030;SDS011;9648;51.130;13.978;2023-06-14T01:01:40;3.53;;;2.80;;
19030;SDS011;9648;51.130;13.978;2023-06-14T01:04:07;4.43;;;2.80;;
19030;SDS011;9648;51.130;13.978;2023-06-14T01:06:35;4.20;;;2.70;;
19030;SDS011;9648;51.130;13.978;2023-06-14T01:09:13;3.72;;;2.95;;
19030;SDS011;9648;51.130;13.978;2023-06-14T01:11:50;5.45;;;2.90;;
19030;SDS011;9648;51.130;13.978;2023-06-14T01:14:28;3.38;;;2.70;;
19030;SDS011;9648;51.130;13.978;2023-06-14T01:16:57;5.50;;;2.90;;
19030;SDS011;9648;51.130;13.978;2023-06-14T01:19:25;4.80;;;2.83;;
19030;SDS011;9648;51.130;13.978;2023-06-14T01:21:53;4.60;;;3.40;;
19030;SDS011;9648;51.130;13.978;2023-06-14T01:24:21;7.32;;;3.65;;
19030;SDS011;9648;51.130;13.978;2023-06-14T01:26:51;5.40;;;3.20;;
19030;SDS011;9648;51.130;13.978;2023-06-14T01:29:21;5.00;;;3.28;;
19030;SDS011;9648;51.130;13.978;2023-06-14T01:31:48;4.93;;;3.33;;
19030;SDS011;9648;51.130;13.978;2023-06-14T01:34:16;4.50;;;3.30;;
19030;SDS011;9648;51.130;13.978;2023-06-14T01:36:45;4.97;;;3.30;;
19030;SDS011;9648;51.130;13.978;2023-06-14T01:39:14;4.93;;;3.33;;
19030;SDS011;9648;51.130;13.978;2023-06-14T01:41:42;4.75;;;3.30;;
19030;SDS011;9648;51.130;13.978;2023-06-14T01:44:10;5.20;;;3.40;;
19030;SDS011;9648;51.130;13.978;2023-06-14T01:46:40;4.53;;;3.10;;
19030;SDS011;9648;51.130;13.978;2023-06-14T01:49:08;4.97;;;3.60;;
19030;SDS011;9648;51.130;13.978;2023-06-14T01:51:35;4.70;;;3.50;;
19030;SDS011;9648;51.130;13.978;2023-06-14T01:54:02;4.47;;;3.47;;
19030;SDS011;9648;51.130;13.978;2023-06-14T01:56:29;5.57;;;3.60;;
19030;SDS011;9648;51.130;13.978;2023-06-14T01:58:57;5.13;;;3.70;;
19030;SDS011;9648;51.130;13.978;2023-06-14T02:01:24;6.18;;;3.35;;
19030;SDS011;9648;51.130;13.978;2023-06-14T02:03:51;3.92;;;3.20;;
19030;SDS011;9648;51.130;13.978;2023-06-14T02:06:18;5.53;;;3.60;;
19030;SDS011;9648;51.130;13.978;2023-06-14T02:08:45;5.47;;;3.60;;
19030;SDS011;9648;51.130;13.978;2023-06-14T02:11:12;4.88;;;3.67;;
19030;SDS011;9648;51.130;13.978;2023-06-14T02:13:38;5.22;;;3.65;;
19030;SDS011;9648;51.130;13.978;2023-06-14T02:16:06;6.60;;;4.22;;
19030;SDS011;9648;51.130;13.978;2023-06-14T02:18:33;4.65;;;3.90;;
19030;SDS011;9648;51.130;13.978;2023-06-14T02:21:00;6.25;;;4.40;;
19030;SDS011;9648;51.130;13.978;2023-06-14T02:23:27;5.97;;;4.30;;
19030;SDS011;9648;51.130;13.978;2023-06-14T02:25:53;7.10;;;4.85;;
19030;SDS011;9648;51.130;13.978;2023-06-14T02:28:20;5.80;;;4.18;;
19030;SDS011;9648;51.130;13.978;2023-06-14T02:30:47;5.90;;;4.05;;
19030;SDS011;9648;51.130;13.978;2023-06-14T02:33:15;6.07;;;4.30;;
19030;SDS011;9648;51.130;13.978;2023-06-14T02:35:42;6.45;;;4.40;;
19030;SDS011;9648;51.130;13.978;2023-06-14T02:38:09;5.75;;;3.95;;
19030;SDS011;9648;51.130;13.978;2023-06-14T02:40:36;6.70;;;3.90;;
19030;SDS011;9648;51.130;13.978;2023-06-14T02:43:03;6.75;;;4.25;;
19030;SDS011;9648;51.130;13.978;2023-06-14T02:45:32;6.32;;;3.97;;
19030;SDS011;9648;51.130;13.978;2023-06-14T02:47:59;7.27;;;4.37;;
19030;SDS011;9648;51.130;13.978;2023-06-14T02:50:27;5.40;;;3.92;;
19030;SDS011;9648;51.130;13.978;2023-06-14T02:52:55;5.93;;;4.00;;
19030;SDS011;9648;51.130;13.978;2023-06-14T02:55:22;5.65;;;4.10;;
19030;SDS011;9648;51.130;13.978;2023-06-14T02:57:49;6.10;;;4.53;;
19030;SDS011;9648;51.130;13.978;2023-06-14T03:00:16;5.30;;;3.92;;
19030;SDS011;9648;51.130;13.978;2023-06-14T03:02:44;7.78;;;4.15;;
19030;SDS011;9648;51.130;13.978;2023-06-14T03:05:11;7.72;;;4.40;;
19030;SDS011;9648;51.130;13.978;2023-06-14T03:07:40;6.75;;;4.40;;
19030;SDS011;9648;51.130;13.978;2023-06-14T03:10:10;5.90;;;4.23;;
19030;SDS011;9648;51.130;13.978;2023-06-14T03:12:38;5.25;;;4.25;;
19030;SDS011;9648;51.130;13.978;2023-06-14T03:15:05;5.60;;;4.28;;
19030;SDS011;9648;51.130;13.978;2023-06-14T03:17:32;5.70;;;4.40;;
19030;SDS011;9648;51.130;13.978;2023-06-14T03:20:00;5.65;;;4.85;;
19030;SDS011;9648;51.130;13.978;2023-06-14T03:22:27;5.72;;;4.35;;
19030;SDS011;9648;51.130;13.978;2023-06-14T03:24:55;5.80;;;4.50;;
19030;SDS011;9648;51.130;13.978;2023-06-14T03:27:24;6.22;;;4.65;;
19030;SDS011;9648;51.130;13.978;2023-06-14T03:29:53;7.75;;;4.88;;
19030;SDS011;9648;51.130;13.978;2023-06-14T03:32:20;7.07;;;4.38;;
19030;SDS011;9648;51.130;13.978;2023-06-14T03:34:47;5.47;;;4.28;;
19030;SDS011;9648;51.130;13.978;2023-06-14T03:37:15;5.70;;;4.40;;
19030;SDS011;9648;51.130;13.978;2023-06-14T03:39:42;5.85;;;4.80;;
19030;SDS011;9648;51.130;13.978;2023-06-14T03:42:13;5.43;;;4.50;;
19030;SDS011;9648;51.130;13.978;2023-06-14T03:44:40;5.80;;;4.80;;
19030;SDS011;9648;51.130;13.978;2023-06-14T03:47:06;6.47;;;4.97;;
19030;SDS011;9648;51.130;13.978;2023-06-14T03:49:34;6.13;;;4.55;;
19030;SDS011;9648;51.130;13.978;2023-06-14T03:52:02;5.75;;;4.90;;
19030;SDS011;9648;51.130;13.978;2023-06-14T03:54:30;6.13;;;4.45;;
19030;SDS011;9648;51.130;13.978;2023-06-14T03:56:57;5.47;;;4.68;;
19030;SDS011;9648;51.130;13.978;2023-06-14T03:59:26;5.70;;;5.00;;
19030;SDS011;9648;51.130;13.978;2023-06-14T04:01:53;6.03;;;4.77;;
19030;SDS011;9648;51.130;13.978;2023-06-14T04:04:20;9.00;;;5.55;;
19030;SDS011;9648;51.130;13.978;2023-06-14T04:06:54;6.55;;;5.20;;
19030;SDS011;9648;51.130;13.978;2023-06-14T04:09:21;6.80;;;4.82;;
19030;SDS011;9648;51.130;13.978;2023-06-14T04:11:50;6.65;;;4.50;;
19030;SDS011;9648;51.130;13.978;2023-06-14T04:14:17;6.18;;;4.63;;
19030;SDS011;9648;51.130;13.978;2023-06-14T04:16:46;6.13;;;4.60;;
19030;SDS011;9648;51.130;13.978;2023-06-14T04:19:14;7.43;;;4.40;;
19030;SDS011;9648;51.130;13.978;2023-06-14T04:21:41;7.93;;;4.90;;
19030;SDS011;9648;51.130;13.978;2023-06-14T04:24:08;8.05;;;4.55;;
19030;SDS011;9648;51.130;13.978;2023-06-14T04:26:38;6.88;;;5.07;;
19030;SDS011;9648;51.130;13.978;2023-06-14T04:29:05;5.88;;;4.47;;
19030;SDS011;9648;51.130;13.978;2023-06-14T04:31:32;6.53;;;4.55;;
19030;SDS011;9648;51.130;13.978;2023-06-14T04:34:00;6.65;;;5.03;;
19030;SDS011;9648;51.130;13.978;2023-06-14T04:36:30;6.90;;;4.60;;
19030;SDS011;9648;51.130;13.978;2023-06-14T04:38:59;5.78;;;4.85;;
19030;SDS011;9648;51.130;13.978;2023-06-14T04:41:28;7.53;;;5.22;;
19030;SDS011;9648;51.130;13.978;2023-06-14T04:43:55;7.28;;;5.05;;
19030;SDS011;9648;51.130;13.978;2023-06-14T04:46:29;6.63;;;5.20;;
19030;SDS011;9648;51.130;13.978;2023-06-14T04:49:11;6.57;;;5.27;;
19030;SDS011;9648;51.130;13.978;2023-06-14T04:51:39;6.53;;;4.57;;
19030;SDS011;9648;51.130;13.978;2023-06-14T04:54:06;5.28;;;4.68;;
19030;SDS011;9648;51.130;13.978;2023-06-14T04:56:35;7.85;;;5.30;;
19030;SDS011;9648;51.130;13.978;2023-06-14T04:59:02;7.03;;;5.05;;
19030;SDS011;9648;51.130;13.978;2023-06-14T05:01:30;6.55;;;5.15;;
19030;SDS011;9648;51.130;13.978;2023-06-14T05:03:58;6.20;;;4.95;;
19030;SDS011;9648;51.130;13.978;2023-06-14T05:06:26;7.13;;;5.18;;
19030;SDS011;9648;51.130;13.978;2023-06-14T05:08:53;7.22;;;5.30;;
19030;SDS011;9648;51.130;13.978;2023-06-14T05:11:20;8.07;;;4.60;;
19030;SDS011;9648;51.130;13.978;2023-06-14T05:13:49;7.40;;;4.88;;
19030;SDS011;9648;51.130;13.978;2023-06-14T05:16:16;7.30;;;5.00;;
19030;SDS011;9648;51.130;13.978;2023-06-14T05:18:44;6.55;;;4.93;;
19030;SDS011;9648;51.130;13.978;2023-06-14T05:21:12;6.70;;;4.60;;
19030;SDS011;9648;51.130;13.978;2023-06-14T05:23:43;6.97;;;4.82;;
19030;SDS011;9648;51.130;13.978;2023-06-14T05:26:10;7.57;;;4.65;;
19030;SDS011;9648;51.130;13.978;2023-06-14T05:28:37;5.97;;;4.67;;
19030;SDS011;9648;51.130;13.978;2023-06-14T05:31:04;7.40;;;5.10;;
19030;SDS011;9648;51.130;13.978;2023-06-14T05:33:30;5.53;;;4.18;;
19030;SDS011;9648;51.130;13.978;2023-06-14T05:35:57;6.60;;;5.07;;
19030;SDS011;9648;51.130;13.978;2023-06-14T05:38:24;6.60;;;4.95;;
19030;SDS011;9648;51.130;13.978;2023-06-14T05:40:52;7.22;;;4.65;;
19030;SDS011;9648;51.130;13.978;2023-06-14T05:43:19;7.03;;;4.65;;
19030;SDS011;9648;51.130;13.978;2023-06-14T05:45:45;7.72;;;4.38;;
19030;SDS011;9648;51.130;13.978;2023-06-14T05:48:12;6.47;;;4.80;;
19030;SDS011;9648;51.130;13.978;2023-06-14T05:50:39;6.00;;;4.32;;
19030;SDS011;9648;51.130;13.978;2023-06-14T05:53:05;6.80;;;4.53;;
19030;SDS011;9648;51.130;13.978;2023-06-14T05:55:32;7.07;;;4.80;;
19030;SDS011;9648;51.130;13.978;2023-06-14T05:58:00;9.17;;;4.80;;
19030;SDS011;9648;51.130;13.978;2023-06-14T06:00:27;9.43;;;5.53;;
19030;SDS011;9648;51.130;13.978;2023-06-14T06:02:53;7.30;;;5.07;;
19030;SDS011;9648;51.130;13.978;2023-06-14T06:05:22;6.15;;;5.20;;
19030;SDS011;9648;51.130;13.978;2023-06-14T06:07:48;6.20;;;4.70;;
19030;SDS011;9648;51.130;13.978;2023-06-14T06:10:15;7.43;;;5.00;;
19030;SDS011;9648;51.130;13.978;2023-06-14T06:12:42;6.20;;;4.43;;
19030;SDS011;9648;51.130;13.978;2023-06-14T06:15:11;7.57;;;4.65;;
19030;SDS011;9648;51.130;13.978;2023-06-14T06:17:38;7.00;;;4.80;;
19030;SDS011;9648;51.130;13.978;2023-06-14T06:20:05;5.77;;;4.30;;
19030;SDS011;9648;51.130;13.978;2023-06-14T06:22:33;5.93;;;4.35;;
19030;SDS011;9648;51.130;13.978;2023-06-14T06:25:00;5.53;;;3.93;;
19030;SDS011;9648;51.130;13.978;2023-06-14T06:27:27;6.40;;;3.97;;
19030;SDS011;9648;51.130;13.978;2023-06-14T06:29:54;5.78;;;4.00;;
19030;SDS011;9648;51.130;13.978;2023-06-14T06:32:22;5.60;;;3.60;;
19030;SDS011;9648;51.130;13.978;2023-06-14T06:34:49;4.40;;;3.55;;
19030;SDS011;9648;51.130;13.978;2023-06-14T06:37:16;5.65;;;3.85;;
19030;SDS011;9648;51.130;13.978;2023-06-14T06:39:43;4.80;;;3.75;;
19030;SDS011;9648;51.130;13.978;2023-06-14T06:42:11;4.53;;;3.60;;
19030;SDS011;9648;51.130;13.978;2023-06-14T06:44:38;5.72;;;3.55;;
19030;SDS011;9648;51.130;13.978;2023-06-14T06:47:05;5.85;;;3.50;;
19030;SDS011;9648;51.130;13.978;2023-06-14T06:49:33;5.75;;;3.45;;
19030;SDS011;9648;51.130;13.978;2023-06-14T06:52:00;5.55;;;3.50;;
19030;SDS011;9648;51.130;13.978;2023-06-14T06:54:28;3.97;;;3.10;;
19030;SDS011;9648;51.130;13.978;2023-06-14T06:56:55;4.60;;;3.40;;
19030;SDS011;9648;51.130;13.978;2023-06-14T06:59:22;6.05;;;4.00;;
19030;SDS011;9648;51.130;13.978;2023-06-14T07:01:49;5.00;;;3.30;;
19030;SDS011;9648;51.130;13.978;2023-06-14T07:04:16;5.10;;;3.47;;
19030;SDS011;9648;51.130;13.978;2023-06-14T07:06:45;6.15;;;3.63;;
19030;SDS011;9648;51.130;13.978;2023-06-14T07:09:13;4.00;;;3.45;;
19030;SDS011;9648;51.130;13.978;2023-06-14T07:11:41;4.53;;;3.60;;
19030;SDS011;9648;51.130;13.978;2023-06-14T07:14:09;3.93;;;3.33;;
19030;SDS011;9648;51.130;13.978;2023-06-14T07:16:36;3.83;;;3.22;;
19030;SDS011;9648;51.130;13.978;2023-06-14T07:19:03;4.03;;;3.33;;
19030;SDS011;9648;51.130;13.978;2023-06-14T07:21:30;4.20;;;3.00;;
19030;SDS011;9648;51.130;13.978;2023-06-14T07:23:58;3.83;;;3.00;;
19030;SDS011;9648;51.130;13.978;2023-06-14T07:26:25;3.60;;;3.00;;
19030;SDS011;9648;51.130;13.978;2023-06-14T07:28:52;4.05;;;2.80;;
19030;SDS011;9648;51.130;13.978;2023-06-14T07:31:19;3.70;;;2.93;;
19030;SDS011;9648;51.130;13.978;2023-06-14T07:33:45;3.85;;;2.78;;
19030;SDS011;9648;51.130;13.978;2023-06-14T07:36:12;3.95;;;2.53;;
19030;SDS011;9648;51.130;13.978;2023-06-14T07:38:39;3.78;;;2.78;;
19030;SDS011;9648;51.130;13.978;2023-06-14T07:41:07;3.15;;;2.70;;
19030;SDS011;9648;51.130;13.978;2023-06-14T07:43:34;4.88;;;2.80;;
19030;SDS011;9648;51.130;13.978;2023-06-14T07:46:01;5.55;;;2.47;;
19030;SDS011;9648;51.130;13.978;2023-06-14T07:48:28;4.30;;;2.50;;
19030;SDS011;9648;51.130;13.978;2023-06-14T07:50:55;4.28;;;2.75;;
19030;SDS011;9648;51.130;13.978;2023-06-14T07:53:22;3.40;;;2.60;;
19030;SDS011;9648;51.130;13.978;2023-06-14T07:55:49;4.32;;;2.53;;
19030;SDS011;9648;51.130;13.978;2023-06-14T07:58:17;8.20;;;3.00;;
19030;SDS011;9648;51.130;13.978;2023-06-14T08:00:44;6.20;;;2.70;;
19030;SDS011;9648;51.130;13.978;2023-06-14T08:03:11;4.68;;;2.90;;
19030;SDS011;9648;51.130;13.978;2023-06-14T08:05:37;5.18;;;2.75;;
19030;SDS011;9648;51.130;13.978;2023-06-14T08:08:04;3.47;;;2.40;;
19030;SDS011;9648;51.130;13.978;2023-06-14T08:10:31;3.90;;;2.47;;
19030;SDS011;9648;51.130;13.978;2023-06-14T08:12:59;5.35;;;2.60;;
19030;SDS011;9648;51.130;13.978;2023-06-14T08:15:27;3.65;;;2.60;;
19030;SDS011;9648;51.130;13.978;2023-06-14T08:17:54;2.97;;;2.25;;
19030;SDS011;9648;51.130;13.978;2023-06-14T08:20:21;3.83;;;2.08;;
19030;SDS011;9648;51.130;13.978;2023-06-14T08:22:49;4.75;;;2.50;;
19030;SDS011;9648;51.130;13.978;2023-06-14T08:25:20;4.17;;;2.37;;
19030;SDS011;9648;51.130;13.978;2023-06-14T08:27:47;3.38;;;2.40;;
19030;SDS011;9648;51.130;13.978;2023-06-14T08:30:14;3.65;;;2.20;;
19030;SDS011;9648;51.130;13.978;2023-06-14T08:32:43;4.50;;;2.33;;
19030;SDS011;9648;51.130;13.978;2023-06-14T08:35:10;5.68;;;2.50;;
19030;SDS011;9648;51.130;13.978;2023-06-14T08:37:38;4.07;;;2.80;;
19030;SDS011;9648;51.130;13.978;2023-06-14T08:40:07;3.13;;;2.00;;
19030;SDS011;9648;51.130;13.978;2023-06-14T08:42:50;3.08;;;2.10;;
19030;SDS011;9648;51.130;13.978;2023-06-14T08:45:18;4.80;;;2.53;;
19030;SDS011;9648;51.130;13.978;2023-06-14T08:47:47;4.15;;;2.17;;
19030;SDS011;9648;51.130;13.978;2023-06-14T08:50:18;4.93;;;2.33;;
19030;SDS011;9648;51.130;13.978;2023-06-14T08:52:46;2.53;;;2.20;;
19030;SDS011;9648;51.130;13.978;2023-06-14T08:55:18;3.85;;;2.30;;
19030;SDS011;9648;51.130;13.978;2023-06-14T08:57:45;4.70;;;2.13;;
19030;SDS011;9648;51.130;13.978;2023-06-14T09:00:14;3.97;;;1.98;;
19030;SDS011;9648;51.130;13.978;2023-06-14T09:02:42;4.03;;;2.10;;
19030;SDS011;9648;51.130;13.978;2023-06-14T09:05:10;3.92;;;2.30;;
19030;SDS011;9648;51.130;13.978;2023-06-14T09:07:38;2.70;;;2.10;;
19030;SDS011;9648;51.130;13.978;2023-06-14T09:10:06;2.80;;;2.08;;
19030;SDS011;9648;51.130;13.978;2023-06-14T09:12:34;3.88;;;2.20;;
19030;SDS011;9648;51.130;13.978;2023-06-14T09:15:01;4.60;;;2.30;;
19030;SDS011;9648;51.130;13.978;2023-06-14T09:17:32;3.30;;;2.30;;
19030;SDS011;9648;51.130;13.978;2023-06-14T09:20:00;3.90;;;2.13;;
19030;SDS011;9648;51.130;13.978;2023-06-14T09:22:31;4.13;;;2.13;;
19030;SDS011;9648;51.130;13.978;2023-06-14T09:24:58;4.68;;;2.30;;
19030;SDS011;9648;51.130;13.978;2023-06-14T09:27:25;2.70;;;2.30;;
19030;SDS011;9648;51.130;13.978;2023-06-14T09:29:52;3.67;;;2.45;;
19030;SDS011;9648;51.130;13.978;2023-06-14T09:32:20;3.13;;;2.28;;
19030;SDS011;9648;51.130;13.978;2023-06-14T09:34:47;3.78;;;2.55;;
19030;SDS011;9648;51.130;13.978;2023-06-14T09:37:25;4.70;;;2.58;;
19030;SDS011;9648;51.130;13.978;2023-06-14T09:39:56;5.07;;;2.85;;
19030;SDS011;9648;51.130;13.978;2023-06-14T09:42:25;4.35;;;2.47;;
19030;SDS011;9648;51.130;13.978;2023-06-14T09:44:53;5.10;;;2.50;;
19030;SDS011;9648;51.130;13.978;2023-06-14T09:47:21;3.60;;;2.47;;
19030;SDS011;9648;51.130;13.978;2023-06-14T09:49:50;4.63;;;3.00;;
19030;SDS011;9648;51.130;13.978;2023-06-14T09:52:19;3.37;;;2.50;;
19030;SDS011;9648;51.130;13.978;2023-06-14T09:54:47;3.05;;;2.40;;
19030;SDS011;9648;51.130;13.978;2023-06-14T09:57:17;3.97;;;2.65;;
19030;SDS011;9648;51.130;13.978;2023-06-14T09:59:48;3.07;;;2.43;;
19030;SDS011;9648;51.130;13.978;2023-06-14T10:02:18;4.93;;;3.08;;
19030;SDS011;9648;51.130;13.978;2023-06-14T10:04:54;4.40;;;2.25;;
19030;SDS011;9648;51.130;13.978;2023-06-14T10:07:26;3.50;;;2.30;;
19030;SDS011;9648;51.130;13.978;2023-06-14T10:09:56;4.83;;;2.53;;
19030;SDS011;9648;51.130;13.978;2023-06-14T10:12:25;6.47;;;3.00;;
19030;SDS011;9648;51.130;13.978;2023-06-14T10:14:52;3.60;;;2.47;;
19030;SDS011;9648;51.130;13.978;2023-06-14T10:17:22;5.53;;;2.70;;
19030;SDS011;9648;51.130;13.978;2023-06-14T10:19:55;3.58;;;2.55;;
19030;SDS011;9648;51.130;13.978;2023-06-14T10:22:29;2.83;;;2.20;;
19030;SDS011;9648;51.130;13.978;2023-06-14T10:25:00;3.17;;;2.47;;
19030;SDS011;9648;51.130;13.978;2023-06-14T10:27:29;5.80;;;2.45;;
19030;SDS011;9648;51.130;13.978;2023-06-14T10:30:02;4.90;;;2.77;;
19030;SDS011;9648;51.130;13.978;2023-06-14T10:32:31;3.93;;;3.00;;
19030;SDS011;9648;51.130;13.978;2023-06-14T10:34:59;4.07;;;2.60;;
19030;SDS011;9648;51.130;13.978;2023-06-14T10:37:26;5.22;;;3.05;;
19030;SDS011;9648;51.130;13.978;2023-06-14T10:39:53;4.83;;;3.37;;
19030;SDS011;9648;51.130;13.978;2023-06-14T10:42:20;5.88;;;3.03;;
19030;SDS011;9648;51.130;13.978;2023-06-14T10:44:52;5.50;;;3.30;;
19030;SDS011;9648;51.130;13.978;2023-06-14T10:51:02;4.25;;;3.00;;
19030;SDS011;9648;51.130;13.978;2023-06-14T10:53:29;4.68;;;3.25;;
19030;SDS011;9648;51.130;13.978;2023-06-14T10:56:26;3.92;;;3.10;;
19030;SDS011;9648;51.130;13.978;2023-06-14T10:59:03;4.72;;;3.15;;
19030;SDS011;9648;51.130;13.978;2023-06-14T11:04:56;4.43;;;2.97;;
19030;SDS011;9648;51.130;13.978;2023-06-14T11:07:46;5.05;;;3.40;;
19030;SDS011;9648;51.130;13.978;2023-06-14T11:10:24;5.00;;;3.25;;
19030;SDS011;9648;51.130;13.978;2023-06-14T11:13:05;6.70;;;2.97;;
19030;SDS011;9648;51.130;13.978;2023-06-14T11:15:32;4.78;;;3.30;;
19030;SDS011;9648;51.130;13.978;2023-06-14T11:18:02;5.28;;;3.40;;
19030;SDS011;9648;51.130;13.978;2023-06-14T11:20:31;5.13;;;3.42;;
19030;SDS011;9648;51.130;13.978;2023-06-14T11:23:02;4.88;;;3.30;;
19030;SDS011;9648;51.130;13.978;2023-06-14T11:25:29;4.85;;;3.15;;
19030;SDS011;9648;51.130;13.978;2023-06-14T11:27:57;4.82;;;3.28;;
19030;SDS011;9648;51.130;13.978;2023-06-14T11:30:24;5.18;;;3.17;;
19030;SDS011;9648;51.130;13.978;2023-06-14T11:32:52;6.10;;;2.78;;
19030;SDS011;9648;51.130;13.978;2023-06-14T11:35:22;4.10;;;2.90;;
19030;SDS011;9648;51.130;13.978;2023-06-14T11:37:52;4.22;;;3.15;;
19030;SDS011;9648;51.130;13.978;2023-06-14T11:40:22;4.13;;;2.73;;
19030;SDS011;9648;51.130;13.978;2023-06-14T11:42:50;4.35;;;3.10;;
19030;SDS011;9648;51.130;13.978;2023-06-14T11:45:33;4.75;;;3.00;;
19030;SDS011;9648;51.130;13.978;2023-06-14T11:48:14;4.72;;;3.00;;
19030;SDS011;9648;51.130;13.978;2023-06-14T11:50:42;5.25;;;3.03;;
19030;SDS011;9648;51.130;13.978;2023-06-14T11:53:08;4.40;;;3.05;;
19030;SDS011;9648;51.130;13.978;2023-06-14T11:55:36;5.40;;;3.40;;
19030;SDS011;9648;51.130;13.978;2023-06-14T11:58:10;5.47;;;3.43;;
19030;SDS011;9648;51.130;13.978;2023-06-14T12:00:37;4.45;;;3.28;;
19030;SDS011;9648;51.130;13.978;2023-06-14T12:03:05;4.15;;;3.20;;
19030;SDS011;9648;51.130;13.978;2023-06-14T12:05:33;5.95;;;3.30;;
19030;SDS011;9648;51.130;13.978;2023-06-14T12:08:02;5.57;;;3.45;;
19030;SDS011;9648;51.130;13.978;2023-06-14T12:10:31;5.57;;;3.43;;
19030;SDS011;9648;51.130;13.978;2023-06-14T12:13:06;5.07;;;3.78;;
19030;SDS011;9648;51.130;13.978;2023-06-14T12:15:47;5.68;;;3.60;;
19030;SDS011;9648;51.130;13.978;2023-06-14T12:32:02;7.03;;;4.00;;
19030;SDS011;9648;51.130;13.978;2023-06-14T12:34:31;6.38;;;4.10;;
19030;SDS011;9648;51.130;13.978;2023-06-14T12:36:58;5.37;;;3.90;;
19030;SDS011;9648;51.130;13.978;2023-06-14T12:39:25;5.20;;;3.60;;
19030;SDS011;9648;51.130;13.978;2023-06-14T12:41:51;8.20;;;3.85;;
19030;SDS011;9648;51.130;13.978;2023-06-14T12:44:19;5.35;;;3.70;;
19030;SDS011;9648;51.130;13.978;2023-06-14T12:46:45;5.43;;;3.63;;
19030;SDS011;9648;51.130;13.978;2023-06-14T12:49:14;6.05;;;3.60;;
19030;SDS011;9648;51.130;13.978;2023-06-14T12:51:40;6.40;;;3.50;;
19030;SDS011;9648;51.130;13.978;2023-06-14T12:54:07;4.07;;;2.88;;
19030;SDS011;9648;51.130;13.978;2023-06-14T12:56:34;7.22;;;3.15;;
19030;SDS011;9648;51.130;13.978;2023-06-14T12:59:01;6.70;;;2.90;;
19030;SDS011;9648;51.130;13.978;2023-06-14T13:01:28;3.83;;;2.60;;
19030;SDS011;9648;51.130;13.978;2023-06-14T13:03:55;6.00;;;3.00;;
19030;SDS011;9648;51.130;13.978;2023-06-14T13:06:23;7.68;;;3.20;;
19030;SDS011;9648;51.130;13.978;2023-06-14T13:08:50;5.07;;;2.60;;
19030;SDS011;9648;51.130;13.978;2023-06-14T13:11:19;3.67;;;2.55;;
19030;SDS011;9648;51.130;13.978;2023-06-14T13:13:46;4.03;;;2.70;;
19030;SDS011;9648;51.130;13.978;2023-06-14T13:16:13;5.03;;;2.65;;
19030;SDS011;9648;51.130;13.978;2023-06-14T13:18:40;5.18;;;2.90;;
19030;SDS011;9648;51.130;13.978;2023-06-14T13:21:09;5.25;;;2.70;;
19030;SDS011;9648;51.130;13.978;2023-06-14T13:23:38;5.50;;;2.58;;
19030;SDS011;9648;51.130;13.978;2023-06-14T13:26:04;5.40;;;2.60;;
19030;SDS011;9648;51.130;13.978;2023-06-14T13:28:31;5.03;;;2.70;;
19030;SDS011;9648;51.130;13.978;2023-06-14T13:31:00;4.93;;;2.42;;
19030;SDS011;9648;51.130;13.978;2023-06-14T13:33:27;4.40;;;2.60;;
19030;SDS011;9648;51.130;13.978;2023-06-14T13:35:54;5.82;;;2.72;;
19030;SDS011;9648;51.130;13.978;2023-06-14T13:38:21;4.88;;;2.97;;
19030;SDS011;9648;51.130;13.978;2023-06-14T13:40:49;3.75;;;2.55;;
19030;SDS011;9648;51.130;13.978;2023-06-14T13:43:16;3.80;;;2.60;;
19030;SDS011;9648;51.130;13.978;2023-06-14T13:45:42;5.30;;;2.50;;
19030;SDS011;9648;51.130;13.978;2023-06-14T13:48:10;4.50;;;2.50;;
19030;SDS011;9648;51.130;13.978;2023-06-14T13:50:37;3.63;;;2.50;;
19030;SDS011;9648;51.130;13.978;2023-06-14T13:53:04;3.42;;;2.70;;
19030;SDS011;9648;51.130;13.978;2023-06-14T13:55:31;3.53;;;2.80;;
19030;SDS011;9648;51.130;13.978;2023-06-14T13:57:59;5.22;;;2.90;;
19030;SDS011;9648;51.130;13.978;2023-06-14T14:00:26;5.55;;;2.80;;
19030;SDS011;9648;51.130;13.978;2023-06-14T14:02:52;3.85;;;2.72;;
19030;SDS011;9648;51.130;13.978;2023-06-14T14:05:19;4.75;;;2.65;;
19030;SDS011;9648;51.130;13.978;2023-06-14T14:07:51;3.92;;;2.22;;
19030;SDS011;9648;51.130;13.978;2023-06-14T14:10:18;3.97;;;2.50;;
19030;SDS011;9648;51.130;13.978;2023-06-14T14:12:45;4.20;;;2.70;;
19030;SDS011;9648;51.130;13.978;2023-06-14T14:15:14;4.95;;;2.63;;
19030;SDS011;9648;51.130;13.978;2023-06-14T14:17:41;3.95;;;2.85;;
19030;SDS011;9648;51.130;13.978;2023-06-14T14:20:08;3.47;;;2.35;;
19030;SDS011;9648;51.130;13.978;2023-06-14T14:22:37;3.90;;;2.60;;
19030;SDS011;9648;51.130;13.978;2023-06-14T14:25:04;4.70;;;2.70;;
19030;SDS011;9648;51.130;13.978;2023-06-14T14:27:31;3.78;;;2.95;;
19030;SDS011;9648;51.130;13.978;2023-06-14T14:29:58;4.00;;;2.72;;
19030;SDS011;9648;51.130;13.978;2023-06-14T14:32:26;4.63;;;2.80;;
19030;SDS011;9648;51.130;13.978;2023-06-14T14:34:52;5.38;;;2.70;;
19030;SDS011;9648;51.130;13.978;2023-06-14T14:37:19;4.10;;;2.60;;
19030;SDS011;9648;51.130;13.978;2023-06-14T14:39:46;4.10;;;2.70;;
19030;SDS011;9648;51.130;13.978;2023-06-14T14:42:13;5.70;;;3.10;;
19030;SDS011;9648;51.130;13.978;2023-06-14T14:44:40;4.72;;;2.90;;
19030;SDS011;9648;51.130;13.978;2023-06-14T14:47:09;6.40;;;2.80;;
19030;SDS011;9648;51.130;13.978;2023-06-14T14:49:38;4.55;;;2.70;;
19030;SDS011;9648;51.130;13.978;2023-06-14T14:52:05;5.63;;;2.80;;
19030;SDS011;9648;51.130;13.978;2023-06-14T14:54:32;6.25;;;3.03;;
19030;SDS011;9648;51.130;13.978;2023-06-14T14:56:59;4.47;;;3.00;;
19030;SDS011;9648;51.130;13.978;2023-06-14T14:59:25;4.20;;;2.88;;
19030;SDS011;9648;51.130;13.978;2023-06-14T15:01:52;4.07;;;3.00;;
19030;SDS011;9648;51.130;13.978;2023-06-14T15:04:19;6.18;;;2.55;;
19030;SDS011;9648;51.130;13.978;2023-06-14T15:06:47;5.22;;;2.83;;
19030;SDS011;9648;51.130;13.978;2023-06-14T15:09:16;4.50;;;2.67;;
19030;SDS011;9648;51.130;13.978;2023-06-14T15:11:42;3.60;;;2.60;;
19030;SDS011;9648;51.130;13.978;2023-06-14T15:14:09;7.07;;;2.83;;